createdAt,value
2022-11-01T00:03:52.652Z,8.43
2022-11-01T00:08:54.628Z,8.45
2022-11-01T00:13:56.210Z,7.40
2022-11-01T00:18:57.777Z,7.15
2022-11-01T00:23:59.270Z,6.45
2022-11-01T00:29:00.817Z,6.32
2022-11-01T00:34:05.632Z,7.43
2022-11-01T00:39:07.758Z,7.30
2022-11-01T00:44:09.203Z,8.93
2022-11-01T00:49:10.690Z,8.93
2022-11-01T00:54:12.167Z,8.65
2022-11-01T00:59:13.670Z,7.78
2022-11-01T01:04:15.168Z,7.88
2022-11-01T01:09:16.619Z,8.20
2022-11-01T01:14:18.079Z,8.57
2022-11-01T01:19:19.956Z,7.88
2022-11-01T01:24:21.744Z,7.45
2022-11-01T01:29:23.346Z,7.50
2022-11-01T01:34:24.787Z,6.65
2022-11-01T01:39:26.286Z,6.70
2022-11-01T01:44:56.727Z,5.63
2022-11-01T01:50:07.488Z,6.38
2022-11-01T01:55:11.132Z,5.90
2022-11-01T02:00:13.277Z,7.07
2022-11-01T02:05:35.329Z,9.05
2022-11-01T02:10:37.387Z,7.78
2022-11-01T02:15:50.276Z,6.13
2022-11-01T02:21:16.054Z,6.13
2022-11-01T02:26:36.886Z,5.85
2022-11-01T02:31:59.762Z,7.20
2022-11-01T02:37:37.142Z,6.93
2022-11-01T02:42:46.601Z,9.15
2022-11-01T02:47:48.065Z,7.55
2022-11-01T02:52:49.768Z,8.32
2022-11-01T02:57:51.217Z,8.77
2022-11-01T03:03:01.109Z,7.68
2022-11-01T03:08:07.450Z,5.80
2022-11-01T03:13:32.605Z,6.07
2022-11-01T03:18:39.142Z,7.18
2022-11-01T03:23:47.111Z,6.28
2022-11-01T03:28:56.940Z,8.57
2022-11-01T03:34:03.059Z,6.33
2022-11-01T03:39:15.203Z,6.22
2022-11-01T03:44:17.386Z,6.70
2022-11-01T03:49:19.596Z,6.18
2022-11-01T03:54:21.360Z,5.90
2022-11-01T03:59:26.096Z,6.38
2022-11-01T04:04:27.529Z,5.90
2022-11-01T04:09:28.986Z,6.18
2022-11-01T04:14:49.250Z,6.80
2022-11-01T04:20:09.144Z,6.18
2022-11-01T04:25:10.633Z,6.77
2022-11-01T04:30:12.392Z,8.50
2022-11-01T04:35:13.985Z,9.23
2022-11-01T04:40:15.552Z,7.47
2022-11-01T04:45:17.082Z,7.25
2022-11-01T04:50:20.312Z,7.55
2022-11-01T04:55:21.770Z,6.95
2022-11-01T05:00:23.637Z,7.15
2022-11-01T05:05:25.092Z,7.78
2022-11-01T05:10:26.592Z,8.25
2022-11-01T05:15:28.167Z,7.00
2022-11-01T05:20:30.721Z,6.90
2022-11-01T05:25:37.023Z,7.68
2022-11-01T05:30:40.531Z,6.25
2022-11-01T05:35:41.972Z,5.13
2022-11-01T05:40:43.505Z,4.35
2022-11-01T05:45:44.952Z,4.00
2022-11-01T05:50:47.100Z,4.10
2022-11-01T05:55:48.661Z,3.47
2022-11-01T06:00:50.178Z,2.63
2022-11-01T06:05:51.678Z,2.38
2022-11-01T06:11:00.288Z,2.38
2022-11-01T06:16:04.463Z,1.88
2022-11-01T06:21:06.095Z,1.70
2022-11-01T06:26:07.652Z,1.10
2022-11-01T06:31:09.115Z,1.35
2022-11-01T06:36:10.596Z,1.17
2022-11-01T06:41:12.057Z,1.33
2022-11-01T06:46:13.612Z,1.13
2022-11-01T06:51:15.159Z,1.98
2022-11-01T06:56:16.664Z,0.90
2022-11-01T07:01:19.195Z,0.90
2022-11-01T07:06:21.954Z,0.90
2022-11-01T07:11:27.419Z,0.70
2022-11-01T07:16:32.672Z,1.05
2022-11-01T07:21:34.152Z,0.68
2022-11-01T07:26:35.598Z,0.65
2022-11-01T07:31:38.917Z,0.57
2022-11-01T07:36:40.388Z,0.75
2022-11-01T07:41:42.044Z,0.75
2022-11-01T07:46:43.518Z,0.90
2022-11-01T07:51:45.021Z,0.88
2022-11-01T07:56:47.873Z,0.77
2022-11-01T08:01:49.460Z,0.82
2022-11-01T08:06:52.256Z,0.75
2022-11-01T08:11:54.000Z,0.70
2022-11-01T08:17:01.907Z,0.55
2022-11-01T08:22:03.457Z,0.38
2022-11-01T08:27:04.921Z,0.40
2022-11-01T08:32:06.392Z,0.60
2022-11-01T08:37:07.869Z,0.60
2022-11-01T08:42:09.686Z,0.63
2022-11-01T08:47:11.657Z,1.05
2022-11-01T08:52:13.279Z,0.55
2022-11-01T08:57:16.076Z,0.80
2022-11-01T09:02:17.855Z,0.65
2022-11-01T09:07:20.338Z,1.15
2022-11-01T09:12:24.807Z,1.00
2022-11-01T09:17:26.553Z,0.63
2022-11-01T09:22:28.962Z,0.60
2022-11-01T09:27:30.794Z,0.70
2022-11-01T09:32:32.369Z,0.80
2022-11-01T09:37:34.036Z,0.63
2022-11-01T09:42:40.206Z,0.85
2022-11-01T09:47:46.106Z,0.60
2022-11-01T09:52:49.169Z,0.63
2022-11-01T09:58:30.196Z,0.82
2022-11-01T10:03:54.255Z,1.15
2022-11-01T10:09:22.125Z,1.00
2022-11-01T10:15:00.523Z,1.60
2022-11-01T10:20:04.303Z,0.88
2022-11-01T10:25:26.297Z,0.80
2022-11-01T10:30:31.444Z,0.80
2022-11-01T10:35:41.607Z,0.68
2022-11-01T10:41:29.280Z,0.90
2022-11-01T10:46:43.958Z,0.75
2022-11-01T10:51:48.244Z,0.90
2022-11-01T10:56:53.503Z,0.70
2022-11-01T11:01:56.043Z,0.80
2022-11-01T11:06:57.759Z,1.05
2022-11-01T11:12:05.123Z,0.77
2022-11-01T11:17:26.040Z,0.60
2022-11-01T11:22:27.731Z,0.90
2022-11-01T11:27:32.882Z,0.70
2022-11-01T11:32:38.825Z,1.02
2022-11-01T11:37:49.711Z,1.52
2022-11-01T11:43:15.000Z,0.70
2022-11-01T11:48:21.926Z,0.73
2022-11-01T11:53:24.510Z,0.85
2022-11-01T11:58:41.310Z,0.75
2022-11-01T12:04:05.992Z,0.70
2022-11-01T12:09:34.670Z,0.98
2022-11-01T12:14:38.783Z,1.13
2022-11-01T12:19:40.245Z,2.83
2022-11-01T12:24:50.747Z,1.42
2022-11-01T12:30:00.938Z,1.20
2022-11-01T12:35:07.143Z,1.27
2022-11-01T12:40:19.012Z,1.60
2022-11-01T12:46:09.554Z,0.82
2022-11-01T12:56:13.137Z,1.60
2022-11-01T13:01:53.692Z,0.95
2022-11-01T13:07:14.016Z,3.30
2022-11-01T13:12:49.085Z,1.38
2022-11-01T13:18:08.947Z,1.13
2022-11-01T13:23:34.201Z,1.33
2022-11-01T13:28:41.392Z,3.30
2022-11-01T13:34:08.352Z,4.03
2022-11-01T13:39:38.073Z,5.57
2022-11-01T13:44:48.783Z,1.42
2022-11-01T13:50:24.124Z,1.40
2022-11-01T13:55:34.838Z,1.00
2022-11-01T14:00:45.812Z,0.98
2022-11-01T14:06:11.705Z,1.55
2022-11-01T14:11:34.392Z,0.90
2022-11-01T14:16:35.890Z,0.55
2022-11-01T14:21:46.778Z,1.13
2022-11-01T14:27:19.036Z,1.23
2022-11-01T14:32:23.876Z,1.48
2022-11-01T14:37:29.061Z,1.10
2022-11-01T14:42:39.001Z,1.30
2022-11-01T14:47:41.149Z,0.82
2022-11-01T14:52:49.253Z,1.00
2022-11-01T14:57:50.956Z,1.05
2022-11-01T15:02:52.828Z,1.50
2022-11-01T15:07:59.190Z,1.40
2022-11-01T15:13:02.350Z,1.38
2022-11-01T15:18:06.380Z,1.27
2022-11-01T15:23:11.608Z,1.23
2022-11-01T15:28:22.552Z,1.70
2022-11-01T15:33:31.568Z,1.05
2022-11-01T15:38:35.742Z,1.35
2022-11-01T15:43:37.362Z,3.15
2022-11-01T15:48:39.140Z,4.20
2022-11-01T15:53:43.043Z,3.88
2022-11-01T15:58:54.244Z,4.68
2022-11-01T16:04:09.960Z,3.10
2022-11-01T16:09:18.606Z,2.80
2022-11-01T16:14:37.122Z,12.60
2022-11-01T16:19:48.441Z,14.82
2022-11-01T16:24:50.179Z,5.15
2022-11-01T16:29:52.868Z,3.45
2022-11-01T16:35:00.183Z,3.63
2022-11-01T16:40:22.496Z,3.83
2022-11-01T16:45:23.995Z,2.80
2022-11-01T16:50:25.522Z,3.72
2022-11-01T16:55:28.531Z,3.03
2022-11-01T17:00:31.644Z,2.35
2022-11-01T17:05:33.191Z,2.25
2022-11-01T17:10:34.646Z,2.38
2022-11-01T17:15:41.759Z,2.88
2022-11-01T17:20:44.642Z,5.05
2022-11-01T17:25:51.283Z,3.35
2022-11-01T17:30:53.384Z,3.75
2022-11-01T17:35:54.886Z,3.28
2022-11-01T17:40:56.931Z,5.57
2022-11-01T17:45:59.810Z,11.38
2022-11-01T17:51:01.886Z,6.80
2022-11-01T17:56:03.579Z,4.88
2022-11-01T18:01:05.412Z,5.10
2022-11-01T18:06:07.122Z,9.32
2022-11-01T18:11:11.217Z,8.85
2022-11-01T18:16:34.098Z,6.25
2022-11-01T18:21:45.383Z,4.60
2022-11-01T18:26:46.914Z,3.60
2022-11-01T18:32:16.888Z,4.90
2022-11-01T18:37:39.231Z,3.77
2022-11-01T18:42:42.131Z,4.57
2022-11-01T18:47:53.301Z,4.25
2022-11-01T18:53:10.549Z,3.50
2022-11-01T18:58:21.130Z,5.03
2022-11-01T19:08:27.280Z,3.70
2022-11-01T19:13:34.032Z,4.40
2022-11-01T19:18:40.706Z,3.03
2022-11-01T19:23:54.876Z,4.13
2022-11-01T19:28:57.648Z,4.97
2022-11-01T19:34:03.092Z,6.15
2022-11-01T19:39:21.008Z,5.45
2022-11-01T19:44:24.557Z,5.63
2022-11-01T19:49:30.121Z,5.05
2022-11-01T19:54:36.226Z,3.92
2022-11-01T19:59:37.726Z,3.42
2022-11-01T20:04:39.178Z,2.30
2022-11-01T20:09:40.975Z,2.15
2022-11-01T20:14:42.454Z,2.10
2022-11-01T20:19:45.172Z,6.55
2022-11-01T20:24:47.169Z,6.47
2022-11-01T20:29:48.806Z,5.32
2022-11-01T20:34:50.629Z,4.60
2022-11-01T20:39:52.055Z,5.03
2022-11-01T20:44:53.556Z,3.85
2022-11-01T20:49:55.066Z,6.15
2022-11-01T20:54:57.722Z,23.15
2022-11-01T20:59:59.336Z,9.82
2022-11-01T21:05:14.375Z,5.70
2022-11-01T21:10:35.657Z,5.32
2022-11-01T21:15:39.430Z,4.10
2022-11-01T21:20:44.630Z,4.70
2022-11-01T21:25:46.861Z,4.28
2022-11-01T21:30:48.442Z,4.40
2022-11-01T21:35:53.079Z,4.47
2022-11-01T21:40:54.554Z,9.10
2022-11-01T21:45:56.172Z,6.03
2022-11-01T21:50:57.794Z,5.25
2022-11-01T21:55:59.251Z,4.65
2022-11-01T22:01:00.809Z,5.43
2022-11-01T22:06:02.314Z,3.65
2022-11-01T22:11:03.830Z,4.45
2022-11-01T22:16:05.736Z,4.13
2022-11-01T22:21:07.215Z,7.25
2022-11-01T22:26:08.730Z,7.43
2022-11-01T22:31:10.472Z,7.63
2022-11-01T22:36:21.150Z,3.67
2022-11-01T22:46:53.582Z,3.15
2022-11-01T22:52:24.466Z,2.80
2022-11-01T22:57:31.935Z,2.15
2022-11-01T23:02:37.483Z,1.85
2022-11-01T23:07:47.726Z,1.70
2022-11-01T23:13:10.869Z,1.95
2022-11-01T23:18:16.214Z,1.90
2022-11-01T23:23:21.053Z,1.50
2022-11-01T23:28:23.469Z,1.58
2022-11-01T23:33:32.468Z,1.15
2022-11-01T23:38:45.892Z,1.48
2022-11-01T23:43:47.884Z,1.40
2022-11-01T23:48:50.152Z,1.80
2022-11-01T23:53:54.127Z,1.70
2022-11-01T23:59:00.633Z,1.40
